Time;durP1;ratioP1;P1;durP2;ratioP2;P2;SDS_P1;SDS_P2;PMS_P1;PMS_P2;Temp;Humidity;BMP_temperature;BMP_pressure;BME280_temperature;BME280_humidity;BME280_pressure;Samples;Min_cycle;Max_cycle;Signal;HPM_P1;HPM_P2
2023/11/07 00:01:34;;;;;;;15.57;7.35;;;;;;;11.04;100.00;100116.09;5114578;28;20564;-44
2023/11/07 00:04:04;;;;;;;13.90;7.40;;;;;;;11.06;100.00;100114.16;5114816;28;20097;-44
2023/11/07 00:06:35;;;;;;;19.85;8.60;;;;;;;11.06;100.00;100122.16;5114542;28;20047;-44
2023/11/07 00:09:04;;;;;;;14.68;7.35;;;;;;;11.09;100.00;100124.63;5114664;28;20067;-46
2023/11/07 00:11:32;;;;;;;13.07;7.22;;;;;;;11.02;100.00;100115.34;5114694;28;20045;-45
2023/11/07 00:14:01;;;;;;;15.40;7.82;;;;;;;10.95;100.00;100122.88;5114406;28;20488;-45
2023/11/07 00:16:31;;;;;;;16.60;7.22;;;;;;;11.01;100.00;100116.28;5114670;28;20092;-43
2023/11/07 00:18:59;;;;;;;13.40;7.45;;;;;;;10.96;100.00;100118.38;5114647;28;20062;-43
2023/11/07 00:21:29;;;;;;;13.50;7.93;;;;;;;10.99;100.00;100112.84;5114509;28;20074;-44
2023/11/07 00:23:58;;;;;;;14.23;7.47;;;;;;;10.96;100.00;100115.72;5114063;28;20496;-44
2023/11/07 00:26:27;;;;;;;18.00;7.55;;;;;;;10.95;100.00;100120.19;5109480;28;20036;-44
2023/11/07 00:28:55;;;;;;;16.85;7.45;;;;;;;10.92;100.00;100116.88;5093950;28;20052;-44
2023/11/07 00:31:24;;;;;;;15.45;7.20;;;;;;;10.87;100.00;100115.34;5093892;28;20048;-43
2023/11/07 00:33:52;;;;;;;14.40;7.55;;;;;;;10.86;100.00;100118.09;5093984;28;20051;-45
2023/11/07 00:36:22;;;;;;;15.82;7.30;;;;;;;10.87;100.00;100126.00;5093965;28;20044;-44
2023/11/07 00:38:52;;;;;;;17.27;8.05;;;;;;;10.70;100.00;100120.88;5093826;28;20048;-43
2023/11/07 00:41:20;;;;;;;12.98;7.45;;;;;;;10.62;100.00;100114.34;5093448;28;20106;-44
2023/11/07 00:43:48;;;;;;;15.35;8.05;;;;;;;10.67;100.00;100112.22;5093850;28;20044;-43
2023/11/07 00:46:18;;;;;;;18.70;8.07;;;;;;;10.72;100.00;100119.00;5093764;28;20052;-45
2023/11/07 00:48:46;;;;;;;16.17;7.65;;;;;;;10.71;100.00;100114.63;5093624;28;20044;-44
2023/11/07 00:51:14;;;;;;;14.40;8.50;;;;;;;10.72;100.00;100129.66;5093364;28;20535;-46
2023/11/07 00:53:43;;;;;;;15.50;8.15;;;;;;;10.72;100.00;100118.13;5093395;28;20059;-45
2023/11/07 00:56:13;;;;;;;20.27;8.55;;;;;;;10.64;100.00;100118.63;5093595;28;20052;-47
2023/11/07 00:58:41;;;;;;;13.85;8.18;;;;;;;10.57;100.00;100117.28;5093380;28;20052;-44
2023/11/07 01:01:09;;;;;;;16.95;8.60;;;;;;;10.47;100.00;100118.78;5093420;28;20052;-45
2023/11/07 01:03:38;;;;;;;14.25;8.23;;;;;;;10.40;100.00;100114.78;5092992;28;20044;-44
2023/11/07 01:06:07;;;;;;;15.23;8.48;;;;;;;10.39;100.00;100124.59;5092962;28;20048;-45
2023/11/07 01:08:36;;;;;;;16.40;8.10;;;;;;;10.39;100.00;100129.94;5092906;28;20044;-45
2023/11/07 01:11:04;;;;;;;16.58;8.75;;;;;;;10.43;100.00;100125.28;5093083;28;20044;-44
2023/11/07 01:13:34;;;;;;;17.77;8.30;;;;;;;10.46;100.00;100120.59;5093244;28;20048;-45
2023/11/07 01:16:02;;;;;;;16.90;8.75;;;;;;;10.51;100.00;100117.63;5092996;28;20056;-45
2023/11/07 01:18:31;;;;;;;16.80;8.82;;;;;;;10.54;100.00;100120.13;5092829;28;20050;-45
2023/11/07 01:20:59;;;;;;;15.18;8.23;;;;;;;10.51;100.00;100114.97;5092934;28;20040;-45
2023/11/07 01:23:28;;;;;;;18.95;9.05;;;;;;;10.51;100.00;100117.63;5092832;28;20101;-44
2023/11/07 01:25:56;;;;;;;16.55;9.32;;;;;;;10.48;100.00;100123.16;5092568;28;20059;-44
2023/11/07 01:28:25;;;;;;;18.98;8.68;;;;;;;10.51;100.00;100122.97;5092723;28;20048;-44
2023/11/07 01:30:54;;;;;;;19.02;9.48;;;;;;;10.50;100.00;100121.25;5092606;28;20051;-44
2023/11/07 01:33:23;;;;;;;16.40;9.02;;;;;;;10.45;100.00;100123.38;5092591;28;20101;-45
2023/11/07 01:35:51;;;;;;;16.92;8.73;;;;;;;10.52;100.00;100130.91;5092568;28;20560;-45
2023/11/07 01:38:20;;;;;;;15.40;8.45;;;;;;;10.52;100.00;100133.56;5092621;28;20052;-44
2023/11/07 01:40:48;;;;;;;15.43;8.73;;;;;;;10.58;100.00;100140.31;5092607;28;20131;-43
2023/11/07 01:43:16;;;;;;;14.57;8.80;;;;;;;10.53;100.00;100127.28;5092781;28;20044;-44
2023/11/07 01:45:45;;;;;;;16.38;9.05;;;;;;;10.47;100.00;100122.31;5092519;28;20416;-44
2023/11/07 01:48:25;;;;;;;20.00;9.65;;;;;;;10.48;100.00;100133.84;5092458;28;20048;-45
2023/11/07 01:50:54;;;;;;;16.50;8.85;;;;;;;10.43;100.00;100127.94;5092364;28;20050;-44
2023/11/07 01:53:23;;;;;;;15.32;8.52;;;;;;;10.42;100.00;100129.75;5092429;28;20104;-43
2023/11/07 01:55:51;;;;;;;17.65;9.27;;;;;;;10.49;100.00;100130.22;5092184;28;20052;-44
2023/11/07 01:58:22;;;;;;;18.85;9.57;;;;;;;10.43;100.00;100126.13;5092294;28;20048;-44
2023/11/07 02:00:53;;;;;;;16.95;8.95;;;;;;;10.47;100.00;100129.47;5092216;28;20050;-44
2023/11/07 02:03:25;;;;;;;16.67;9.40;;;;;;;10.43;100.00;100126.13;5092186;28;20044;-44
2023/11/07 02:05:53;;;;;;;16.80;9.45;;;;;;;10.46;100.00;100133.09;5092096;28;20070;-44
2023/11/07 02:08:23;;;;;;;18.23;9.68;;;;;;;10.41;100.00;100140.50;5092018;28;20040;-43
2023/11/07 02:10:51;;;;;;;20.70;9.88;;;;;;;10.46;100.00;100135.75;5092147;28;20055;-45
2023/11/07 02:13:19;;;;;;;18.77;9.60;;;;;;;10.45;100.00;100139.38;5092063;28;20048;-44
2023/11/07 02:15:48;;;;;;;18.13;9.32;;;;;;;10.49;100.00;100128.41;5092148;28;20044;-45
2023/11/07 02:18:16;;;;;;;21.50;9.98;;;;;;;10.47;100.00;100126.78;5091941;28;20040;-44
2023/11/07 02:20:49;;;;;;;17.33;9.68;;;;;;;10.49;100.00;100140.88;5091785;28;20086;-44
2023/11/07 02:23:32;;;;;;;17.17;9.45;;;;;;;10.46;100.00;100136.59;5091682;28;20044;-45
2023/11/07 02:26:00;;;;;;;19.43;10.20;;;;;;;10.45;100.00;100134.03;5091699;28;20052;-43
2023/11/07 02:28:29;;;;;;;18.80;10.05;;;;;;;10.27;100.00;100142.19;5091613;28;20109;-44
2023/11/07 02:30:58;;;;;;;18.15;10.10;;;;;;;10.12;100.00;100136.91;5090284;28;20040;-44
2023/11/07 02:33:26;;;;;;;17.33;10.02;;;;;;;10.11;100.00;100146.69;5091708;28;20058;-42
2023/11/07 02:35:54;;;;;;;20.30;9.80;;;;;;;10.15;100.00;100142.91;5091572;28;20610;-44
2023/11/07 02:38:23;;;;;;;17.10;9.77;;;;;;;10.15;100.00;100134.91;5091481;28;20542;-44
2023/11/07 02:40:53;;;;;;;22.45;11.25;;;;;;;10.12;100.00;100137.75;5091612;28;20098;-44
2023/11/07 02:43:21;;;;;;;19.67;10.68;;;;;;;10.12;100.00;100137.75;5091768;28;20070;-44
2023/11/07 02:45:49;;;;;;;19.60;10.50;;;;;;;10.10;100.00;100134.31;5091732;28;20122;-43
2023/11/07 02:48:17;;;;;;;18.60;10.43;;;;;;;10.13;100.00;100144.78;5091479;28;20047;-44
2023/11/07 02:50:46;;;;;;;22.67;11.55;;;;;;;10.19;100.00;100147.09;5090719;28;20054;-46
2023/11/07 02:53:15;;;;;;;20.30;10.75;;;;;;;10.22;100.00;100149.59;5091694;28;20044;-43
2023/11/07 02:55:45;;;;;;;20.30;11.35;;;;;;;10.18;100.00;100147.19;5091202;28;20449;-44
2023/11/07 02:58:15;;;;;;;21.60;11.43;;;;;;;10.20;100.00;100153.28;5091218;28;20522;-43
2023/11/07 03:00:45;;;;;;;21.75;11.90;;;;;;;10.13;100.00;100152.78;5091281;28;20105;-44
2023/11/07 03:03:14;;;;;;;22.48;12.48;;;;;;;10.05;100.00;100157.75;5091365;28;20151;-45
2023/11/07 03:05:43;;;;;;;24.52;12.15;;;;;;;9.84;100.00;100153.66;5091111;28;20534;-44
2023/11/07 03:08:12;;;;;;;23.83;12.98;;;;;;;9.72;100.00;100156.09;5091287;28;20052;-46
2023/11/07 03:10:40;;;;;;;27.08;13.32;;;;;;;9.62;100.00;100148.72;5091401;28;20040;-44
2023/11/07 03:13:09;;;;;;;27.10;13.52;;;;;;;9.52;100.00;100147.53;5091150;28;20094;-46
2023/11/07 03:15:39;;;;;;;26.33;13.43;;;;;;;9.56;100.00;100154.44;5091545;28;20089;-45
2023/11/07 03:18:08;;;;;;;23.23;13.18;;;;;;;9.45;100.00;100160.34;5090968;28;20046;-44
2023/11/07 03:20:36;;;;;;;19.60;12.40;;;;;;;9.64;100.00;100163.66;5090957;28;20481;-44
2023/11/07 03:23:04;;;;;;;25.70;13.40;;;;;;;9.63;100.00;100169.94;5090893;28;20052;-44
2023/11/07 03:25:32;;;;;;;26.60;13.57;;;;;;;9.72;100.00;100166.75;5091239;28;20464;-44
2023/11/07 03:28:01;;;;;;;22.92;12.70;;;;;;;9.71;100.00;100166.84;5091303;28;20084;-44
2023/11/07 03:30:29;;;;;;;21.45;12.52;;;;;;;9.56;100.00;100171.25;5090876;28;20040;-45
2023/11/07 03:32:59;;;;;;;20.05;12.52;;;;;;;9.66;100.00;100171.59;5091129;28;20131;-44
2023/11/07 03:35:29;;;;;;;26.98;13.27;;;;;;;9.55;100.00;100177.50;5091232;28;20051;-45
2023/11/07 03:37:58;;;;;;;25.60;13.95;;;;;;;9.52;100.00;100182.16;5091022;28;20134;-45
2023/11/07 03:40:26;;;;;;;27.80;14.38;;;;;;;9.57;100.00;100188.94;5091110;28;20039;-45
2023/11/07 03:42:55;;;;;;;23.17;12.98;;;;;;;9.73;100.00;100184.44;5091108;28;20165;-43
2023/11/07 03:45:23;;;;;;;24.77;14.05;;;;;;;9.66;100.00;100176.91;5090722;28;20048;-44
2023/11/07 03:47:52;;;;;;;23.80;13.32;;;;;;;9.58;100.00;100177.34;5091096;28;20140;-43
2023/11/07 03:50:22;;;;;;;29.27;13.93;;;;;;;9.44;100.00;100172.78;5090959;28;20044;-44
2023/11/07 03:52:50;;;;;;;29.45;14.82;;;;;;;9.42;100.00;100173.84;5091067;28;20561;-44
2023/11/07 03:55:19;;;;;;;34.75;14.98;;;;;;;9.41;100.00;100175.63;5090800;28;20047;-47
2023/11/07 03:57:47;;;;;;;30.48;15.65;;;;;;;9.52;100.00;100180.34;5090800;28;20397;-45
2023/11/07 04:00:19;;;;;;;32.40;15.40;;;;;;;9.53;100.00;100176.75;5090810;28;20044;-46
2023/11/07 04:02:48;;;;;;;36.83;16.63;;;;;;;9.41;100.00;100177.44;5092585;28;20054;-44
2023/11/07 04:05:16;;;;;;;41.17;16.35;;;;;;;9.33;100.00;100179.69;5094341;28;20051;-44
2023/11/07 04:07:46;;;;;;;31.50;15.52;;;;;;;9.36;100.00;100179.50;5094123;28;20135;-43
2023/11/07 04:10:14;;;;;;;37.58;15.05;;;;;;;9.28;100.00;100176.44;5094056;28;20083;-44
2023/11/07 04:12:43;;;;;;;25.95;14.35;;;;;;;9.46;100.00;100186.03;5094306;28;20101;-43
2023/11/07 04:15:12;;;;;;;25.17;14.55;;;;;;;9.53;100.00;100182.06;5094030;28;20048;-43
2023/11/07 04:17:41;;;;;;;28.40;15.40;;;;;;;9.49;100.00;100185.00;5093771;28;20770;-43
2023/11/07 04:20:11;;;;;;;28.63;15.00;;;;;;;9.58;100.00;100180.00;5093839;28;20454;-44
2023/11/07 04:22:39;;;;;;;33.42;14.10;;;;;;;9.47;100.00;100182.44;5093552;28;20056;-43
2023/11/07 04:25:10;;;;;;;37.08;14.65;;;;;;;9.44;100.00;100182.59;5093815;28;20052;-43
2023/11/07 04:27:42;;;;;;;24.95;14.43;;;;;;;9.52;100.00;100192.81;5093804;28;20052;-44
2023/11/07 04:30:11;;;;;;;40.00;14.80;;;;;;;9.54;100.00;100194.44;5093611;28;20048;-44
2023/11/07 04:32:41;;;;;;;30.52;14.45;;;;;;;9.63;100.00;100201.03;5093900;28;20052;-44
2023/11/07 04:35:11;;;;;;;22.88;13.38;;;;;;;9.74;100.00;100202.13;5093466;28;20562;-44
2023/11/07 04:37:40;;;;;;;20.77;12.93;;;;;;;9.87;100.00;100196.13;5093407;28;20043;-46
2023/11/07 04:40:11;;;;;;;26.92;13.25;;;;;;;9.83;100.00;100199.91;5093569;28;20051;-42
2023/11/07 04:42:39;;;;;;;31.33;12.90;;;;;;;9.80;100.00;100200.09;5093697;28;20136;-43
2023/11/07 04:45:11;;;;;;;23.08;12.38;;;;;;;9.71;100.00;100209.47;5093212;28;20527;-44
2023/11/07 04:47:39;;;;;;;25.00;12.10;;;;;;;9.57;100.00;100199.59;5093231;28;20059;-44
2023/11/07 04:50:12;;;;;;;23.98;11.25;;;;;;;9.38;100.00;100198.94;5093387;28;20432;-44
2023/11/07 04:52:40;;;;;;;23.38;11.50;;;;;;;9.32;100.00;100201.91;5093396;28;20044;-44
2023/11/07 04:55:11;;;;;;;22.65;11.60;;;;;;;9.18;100.00;100210.69;5093267;28;20131;-44
2023/11/07 04:57:40;;;;;;;27.75;10.85;;;;;;;9.16;100.00;100207.22;5092996;28;20044;-44
2023/11/07 05:00:10;;;;;;;23.00;11.23;;;;;;;9.09;100.00;100214.69;5092969;28;20481;-43
2023/11/07 05:02:39;;;;;;;24.40;11.45;;;;;;;9.11;100.00;100204.81;5092778;28;20048;-42
2023/11/07 05:05:09;;;;;;;25.95;12.23;;;;;;;9.13;100.00;100205.59;5093270;28;20059;-44
2023/11/07 05:07:38;;;;;;;25.42;12.25;;;;;;;9.09;100.00;100195.22;5092558;28;20048;-42
2023/11/07 05:10:09;;;;;;;24.95;11.63;;;;;;;9.16;100.00;100205.41;5092987;28;20457;-43
2023/11/07 05:12:39;;;;;;;28.80;13.10;;;;;;;9.15;100.00;100203.69;5092323;28;20052;-44
2023/11/07 05:15:09;;;;;;;30.08;13.63;;;;;;;9.23;100.00;100210.41;5093051;28;20074;-43
2023/11/07 05:17:40;;;;;;;32.60;13.70;;;;;;;9.12;100.00;100198.56;5092862;28;20079;-44
2023/11/07 05:20:10;;;;;;;26.27;13.02;;;;;;;9.40;100.00;100207.69;5092867;28;20054;-45
2023/11/07 05:22:38;;;;;;;31.83;13.43;;;;;;;9.46;100.00;100210.00;5092668;28;20048;-44
2023/11/07 05:25:08;;;;;;;31.60;13.05;;;;;;;9.21;100.00;100207.84;5092644;28;20040;-44
2023/11/07 05:27:36;;;;;;;31.23;13.75;;;;;;;9.36;100.00;100207.00;5092467;28;20052;-43
2023/11/07 05:30:07;;;;;;;28.45;14.05;;;;;;;9.58;100.00;100200.47;5092750;28;20159;-43
2023/11/07 05:32:36;;;;;;;28.15;12.52;;;;;;;9.50;100.00;100202.69;5092653;28;20055;-42
2023/11/07 05:35:05;;;;;;;39.78;12.90;;;;;;;9.44;100.00;100201.22;5092460;28;20559;-45
2023/11/07 05:37:34;;;;;;;30.77;13.65;;;;;;;9.29;100.00;100210.09;5092629;28;20047;-44
2023/11/07 05:40:04;;;;;;;49.60;12.60;;;;;;;9.33;100.00;100222.25;5092347;28;20055;-43
2023/11/07 05:42:33;;;;;;;27.38;12.38;;;;;;;9.47;100.00;100225.03;5092481;28;20044;-44
2023/11/07 05:45:03;;;;;;;30.02;12.63;;;;;;;9.37;100.00;100221.16;5092432;28;20127;-43
2023/11/07 05:47:32;;;;;;;21.70;11.50;;;;;;;9.29;100.00;100226.06;5092416;28;20075;-44
2023/11/07 05:50:01;;;;;;;26.75;12.73;;;;;;;9.39;100.00;100237.91;5092525;28;20055;-43
2023/11/07 05:52:29;;;;;;;33.97;12.05;;;;;;;9.43;100.00;100234.97;5092180;28;20475;-43
2023/11/07 05:54:57;;;;;;;25.25;12.13;;;;;;;9.41;100.00;100238.69;5092126;28;20040;-43
2023/11/07 05:57:25;;;;;;;36.92;11.88;;;;;;;9.28;100.00;100241.16;5091945;28;20051;-44
2023/11/07 05:59:54;;;;;;;47.97;12.75;;;;;;;9.21;100.00;100250.41;5092122;28;20135;-44
2023/11/07 06:02:24;;;;;;;51.80;13.35;;;;;;;9.15;100.00;100251.59;5092280;28;20588;-45
2023/11/07 06:04:55;;;;;;;42.78;13.43;;;;;;;9.26;100.00;100255.47;5091964;28;20040;-44
2023/11/07 06:07:24;;;;;;;26.92;12.27;;;;;;;9.43;100.00;100260.75;5091828;28;20059;-45
2023/11/07 06:09:52;;;;;;;32.05;12.40;;;;;;;9.40;100.00;100261.78;5092397;28;20040;-44
2023/11/07 06:12:20;;;;;;;20.98;11.57;;;;;;;9.47;100.00;100262.31;5091906;28;20513;-45
2023/11/07 06:14:49;;;;;;;28.15;12.13;;;;;;;9.46;100.00;100271.25;5091844;28;20135;-46
2023/11/07 06:17:18;;;;;;;37.60;12.05;;;;;;;9.38;100.00;100269.00;5092160;28;20079;-44
2023/11/07 06:19:47;;;;;;;27.15;11.27;;;;;;;9.39;100.00;100269.84;5092996;28;20073;-45
2023/11/07 06:22:17;;;;;;;24.65;11.23;;;;;;;9.46;100.00;100271.25;5092551;28;20138;-45
2023/11/07 06:24:46;;;;;;;22.25;11.55;;;;;;;9.57;100.00;100274.16;5091980;28;20044;-44
2023/11/07 06:27:14;;;;;;;20.65;10.40;;;;;;;9.61;100.00;100269.50;5091766;28;20489;-48
2023/11/07 06:29:43;;;;;;;16.83;10.18;;;;;;;9.73;100.00;100275.00;5091754;28;20044;-45
2023/11/07 06:32:13;;;;;;;16.70;9.90;;;;;;;9.78;100.00;100276.56;5091613;28;20058;-45
2023/11/07 06:34:42;;;;;;;26.08;10.50;;;;;;;9.44;100.00;100276.63;5091920;28;20165;-45
2023/11/07 06:37:12;;;;;;;24.45;11.10;;;;;;;9.49;100.00;100284.38;5091910;28;20048;-43
2023/11/07 06:39:44;;;;;;;24.98;11.98;;;;;;;9.61;100.00;100286.34;5091516;28;20079;-43
2023/11/07 06:42:12;;;;;;;25.05;12.10;;;;;;;9.51;100.00;100284.28;5091607;28;20046;-43
2023/11/07 06:44:40;;;;;;;26.10;11.73;;;;;;;9.45;100.00;100288.13;5091442;28;20047;-45
2023/11/07 06:47:09;;;;;;;19.05;10.82;;;;;;;9.65;100.00;100287.91;5091581;28;20071;-45
2023/11/07 06:49:37;;;;;;;19.48;11.18;;;;;;;9.86;100.00;100295.66;5091642;28;20048;-44
2023/11/07 06:52:06;;;;;;;26.45;10.82;;;;;;;9.85;100.00;100291.28;5091310;28;20071;-43
2023/11/07 06:54:34;;;;;;;20.33;10.65;;;;;;;9.86;100.00;100285.84;5091559;28;20128;-43
2023/11/07 06:57:04;;;;;;;19.27;10.38;;;;;;;10.02;100.00;100292.00;5091380;28;20072;-45
2023/11/07 06:59:33;;;;;;;25.15;14.52;;;;;;;10.10;100.00;100293.38;5091181;28;20044;-43
2023/11/07 07:02:01;;;;;;;27.58;12.73;;;;;;;10.16;100.00;100299.22;5091409;28;20062;-44
2023/11/07 07:04:29;;;;;;;43.42;11.65;;;;;;;9.67;100.00;100296.69;5091486;28;20094;-44
2023/11/07 07:06:58;;;;;;;37.75;9.88;;;;;;;9.84;100.00;100289.53;5085898;28;20040;-44
2023/11/07 07:09:27;;;;;;;19.88;10.15;;;;;;;9.92;100.00;100289.94;5080790;28;20079;-45
2023/11/07 07:11:55;;;;;;;51.70;10.23;;;;;;;9.85;100.00;100294.78;5072164;28;20144;-44
2023/11/07 07:14:25;;;;;;;33.92;10.45;;;;;;;9.89;100.00;100298.13;5072093;28;20131;-44
2023/11/07 07:16:53;;;;;;;17.27;9.52;;;;;;;10.05;100.00;100301.66;5073017;28;20387;-45
2023/11/07 07:19:21;;;;;;;19.92;10.52;;;;;;;10.25;100.00;100303.19;5081770;28;20058;-44
2023/11/07 07:21:54;;;;;;;21.63;11.00;;;;;;;10.14;100.00;100305.59;5074500;28;20076;-44
2023/11/07 07:24:27;;;;;;;29.30;10.75;;;;;;;10.06;100.00;100314.03;5073051;28;20045;-43
2023/11/07 07:26:58;;;;;;;25.13;11.38;;;;;;;10.12;100.00;100318.13;5073222;28;20052;-44
2023/11/07 07:29:29;;;;;;;19.77;11.27;;;;;;;10.31;100.00;100314.34;5073463;28;20044;-43
2023/11/07 07:31:59;;;;;;;23.17;11.80;;;;;;;10.41;100.00;100320.00;5072992;28;20044;-45
2023/11/07 07:34:28;;;;;;;18.92;10.35;;;;;;;10.52;100.00;100322.94;5071829;28;20433;-45
2023/11/07 07:36:56;;;;;;;19.42;10.30;;;;;;;10.65;100.00;100320.38;5073334;28;20084;-43
2023/11/07 07:39:34;;;;;;;19.75;10.23;;;;;;;10.69;100.00;100321.91;5074700;28;20055;-45
2023/11/07 07:42:09;;;;;;;17.98;10.50;;;;;;;10.60;100.00;100325.97;5074707;28;20670;-45
2023/11/07 07:44:39;;;;;;;;;;;;;;;10.66;100.00;100324.75;5074984;28;20060;-43
2023/11/07 07:47:08;;;;;;;19.17;11.20;;;;;;;10.62;100.00;100325.06;5074423;28;20023;-44
2023/11/07 07:49:37;;;;;;;20.55;11.32;;;;;;;10.67;100.00;100337.16;5095418;28;20185;-44
2023/11/07 07:52:09;;;;;;;23.20;11.73;;;;;;;10.58;100.00;100327.03;5097910;28;20120;-44
2023/11/07 07:54:38;;;;;;;26.15;10.65;;;;;;;10.49;100.00;100327.56;5093660;28;20069;-43
2023/11/07 07:57:09;;;;;;;19.17;10.95;;;;;;;10.44;100.00;100319.84;5093380;28;20044;-43
2023/11/07 07:59:42;;;;;;;22.00;11.80;;;;;;;10.19;100.00;100323.03;5092251;28;20100;-44
2023/11/07 08:02:10;;;;;;;23.23;12.63;;;;;;;10.34;100.00;100323.13;5094127;28;20073;-44
2023/11/07 08:04:39;;;;;;;27.35;12.95;;;;;;;10.24;100.00;100328.16;5093782;28;20084;-44
2023/11/07 08:07:07;;;;;;;23.55;12.73;;;;;;;10.23;100.00;100331.72;5094184;28;20455;-44
2023/11/07 08:09:40;;;;;;;23.17;13.73;;;;;;;10.41;100.00;100330.66;5093549;28;20141;-44
2023/11/07 08:12:11;;;;;;;24.92;14.60;;;;;;;10.56;100.00;100335.13;5093847;28;20477;-44
2023/11/07 08:14:44;;;;;;;45.25;16.73;;;;;;;10.12;100.00;100326.97;5093792;28;20055;-44
2023/11/07 08:17:12;;;;;;;37.72;17.02;;;;;;;9.94;100.00;100326.25;5093552;28;20052;-44
2023/11/07 08:19:40;;;;;;;39.17;17.80;;;;;;;10.02;100.00;100325.78;5093803;28;20047;-44
2023/11/07 08:22:09;;;;;;;54.63;23.52;;;;;;;9.91;100.00;100325.53;5093645;28;20059;-44
2023/11/07 08:24:38;;;;;;;48.05;22.20;;;;;;;10.20;100.00;100335.41;5094116;28;20409;-45
2023/11/07 08:27:06;;;;;;;58.33;24.73;;;;;;;10.32;100.00;100326.72;5093820;28;20056;-44
2023/11/07 08:29:35;;;;;;;64.25;26.50;;;;;;;10.25;100.00;100325.38;5093497;28;20052;-43
2023/11/07 08:32:07;;;;;;;58.67;26.92;;;;;;;10.46;100.00;100328.59;5094463;28;20112;-43
2023/11/07 08:34:36;;;;;;;59.72;26.27;;;;;;;10.64;100.00;100328.47;5096423;28;20136;-46
2023/11/07 08:37:05;;;;;;;68.07;28.55;;;;;;;10.61;100.00;100321.50;5096036;28;20039;-45
2023/11/07 08:39:40;;;;;;;56.72;26.52;;;;;;;10.64;100.00;100321.34;5095618;28;20124;-45
2023/11/07 08:42:10;;;;;;;48.20;24.15;;;;;;;10.71;100.00;100324.47;5095799;28;20358;-45
2023/11/07 08:44:39;;;;;;;41.80;22.52;;;;;;;10.63;100.00;100330.28;5096451;28;20044;-46
2023/11/07 08:47:10;;;;;;;41.78;22.05;;;;;;;10.52;100.00;100341.59;5096049;28;20048;-44
2023/11/07 08:49:38;;;;;;;44.72;22.17;;;;;;;10.58;100.00;100343.88;5095866;28;20052;-45
2023/11/07 08:52:07;;;;;;;45.53;24.23;;;;;;;10.76;100.00;100347.28;5095849;28;20048;-44
2023/11/07 08:54:36;;;;;;;42.45;22.98;;;;;;;10.55;100.00;100349.41;5096344;28;20048;-43
2023/11/07 08:57:05;;;;;;;45.80;24.08;;;;;;;10.60;100.00;100349.97;5094670;28;20040;-43
2023/11/07 08:59:36;;;;;;;45.50;23.33;;;;;;;10.72;100.00;100347.56;5093232;28;20135;-43
2023/11/07 09:02:04;;;;;;;51.63;26.60;;;;;;;10.75;100.00;100347.38;5092974;28;20510;-45
2023/11/07 09:04:37;;;;;;;50.92;25.38;;;;;;;10.42;100.00;100352.84;5092987;28;20048;-43
2023/11/07 09:07:06;;;;;;;44.70;24.23;;;;;;;10.69;100.00;100356.59;5093001;28;20048;-43
2023/11/07 09:09:35;;;;;;;46.50;24.48;;;;;;;10.85;100.00;100362.75;5092768;28;20083;-45
2023/11/07 09:12:05;;;;;;;31.75;18.13;;;;;;;10.64;100.00;100352.50;5093245;28;20124;-45
2023/11/07 09:14:33;;;;;;;36.85;18.55;;;;;;;10.71;100.00;100357.38;5092819;28;20066;-43
2023/11/07 09:17:01;;;;;;;37.58;19.73;;;;;;;10.78;100.00;100348.03;5092760;28;20077;-43
2023/11/07 09:19:29;;;;;;;37.50;21.00;;;;;;;10.22;100.00;100352.19;5093008;28;20050;-43
2023/11/07 09:22:00;;;;;;;38.63;21.20;;;;;;;10.68;100.00;100349.53;5092468;28;20055;-42
2023/11/07 09:24:28;;;;;;;41.67;23.20;;;;;;;10.82;100.00;100344.25;5092530;28;20457;-44
2023/11/07 09:26:57;;;;;;;38.03;21.67;;;;;;;10.89;100.00;100342.91;5092382;28;20465;-43
2023/11/07 09:29:26;;;;;;;42.80;23.75;;;;;;;10.86;100.00;100343.13;5092381;28;20055;-44
2023/11/07 09:31:56;;;;;;;44.08;23.98;;;;;;;11.05;100.00;100339.34;5092384;28;20040;-47
2023/11/07 09:34:24;;;;;;;38.95;23.52;;;;;;;11.13;100.00;100340.59;5092308;28;20093;-43
2023/11/07 09:36:53;;;;;;;36.97;21.85;;;;;;;10.77;100.00;100338.31;5092553;28;20463;-45
2023/11/07 09:39:22;;;;;;;32.03;20.05;;;;;;;10.72;100.00;100344.91;5092357;28;20412;-43
2023/11/07 09:41:51;;;;;;;35.03;20.17;;;;;;;10.75;100.00;100342.91;5092284;28;20107;-45
2023/11/07 09:44:19;;;;;;;39.30;20.67;;;;;;;10.78;100.00;100337.38;5092213;28;20047;-44
2023/11/07 09:46:49;;;;;;;45.72;25.17;;;;;;;10.77;100.00;100338.31;5092128;28;20055;-43
2023/11/07 09:49:20;;;;;;;36.83;22.42;;;;;;;10.56;100.00;100339.59;5090778;28;20477;-44
2023/11/07 09:51:51;;;;;;;39.17;22.70;;;;;;;10.81;100.00;100341.69;5092268;28;20066;-43
2023/11/07 09:54:24;;;;;;;36.53;22.02;;;;;;;11.08;100.00;100341.81;5092043;28;20123;-44
2023/11/07 09:56:55;;;;;;;37.83;22.17;;;;;;;10.95;100.00;100327.50;5091968;28;20484;-44
2023/11/07 09:59:30;;;;;;;36.53;19.83;;;;;;;10.96;100.00;100331.88;5090620;28;20051;-44
2023/11/07 10:01:59;;;;;;;29.02;19.10;;;;;;;10.83;100.00;100342.44;5091961;28;20036;-44
2023/11/07 10:04:28;;;;;;;34.15;19.52;;;;;;;10.70;100.00;100352.97;5092027;28;20048;-44
2023/11/07 10:06:58;;;;;;;32.90;18.50;;;;;;;10.72;100.00;100343.09;5091911;28;20043;-45
2023/11/07 10:09:28;;;;;;;30.33;18.92;;;;;;;10.88;100.00;100333.19;5091996;28;20080;-43
2023/11/07 10:11:58;;;;;;;26.58;16.60;;;;;;;10.97;100.00;100337.13;5091621;28;20056;-44
2023/11/07 10:14:27;;;;;;;29.13;16.92;;;;;;;11.03;100.00;100338.56;5091886;28;20067;-44
2023/11/07 10:16:58;;;;;;;26.17;15.90;;;;;;;11.15;100.00;100338.69;5092100;28;20052;-43
2023/11/07 10:19:27;;;;;;;25.15;15.57;;;;;;;11.32;100.00;100337.66;5091622;28;20353;-43
2023/11/07 10:21:55;;;;;;;25.77;16.02;;;;;;;11.42;100.00;100329.94;5091335;28;20052;-43
2023/11/07 10:24:23;;;;;;;24.65;15.65;;;;;;;11.33;100.00;100326.00;5091839;28;20048;-44
2023/11/07 10:26:58;;;;;;;26.40;15.55;;;;;;;11.50;100.00;100326.78;5090132;28;20051;-43
2023/11/07 10:29:30;;;;;;;22.55;15.93;;;;;;;11.38;100.00;100326.56;5091333;28;20480;-44
2023/11/07 10:32:08;;;;;;;26.23;16.80;;;;;;;11.53;100.00;100321.25;5091496;28;20409;-43
2023/11/07 10:34:38;;;;;;;27.52;16.70;;;;;;;11.60;100.00;100326.09;5091575;28;20083;-48
2023/11/07 10:37:05;;;;;;;27.60;16.67;;;;;;;11.85;100.00;100327.22;5091368;28;20400;-43
2023/11/07 10:39:35;;;;;;;30.15;17.17;;;;;;;11.72;100.00;100321.78;5091380;28;20044;-44
2023/11/07 10:42:18;;;;;;;24.98;16.33;;;;;;;11.55;100.00;100309.50;5091542;28;20148;-43
2023/11/07 10:44:49;;;;;;;26.92;17.38;;;;;;;11.62;100.00;100312.63;5091332;28;20541;-42
2023/11/07 10:47:19;;;;;;;29.05;16.77;;;;;;;11.53;100.00;100313.22;5091095;28;20048;-46
2023/11/07 10:49:51;;;;;;;24.85;16.45;;;;;;;11.32;100.00;100310.09;5091078;28;20052;-44
2023/11/07 10:52:20;;;;;;;26.42;15.70;;;;;;;11.15;100.00;100308.47;5091079;28;20473;-44
2023/11/07 10:54:48;;;;;;;25.52;16.45;;;;;;;11.06;100.00;100314.34;5090999;28;20075;-44
2023/11/07 10:57:22;;;;;;;26.05;15.85;;;;;;;11.28;100.00;100322.75;5091105;28;20105;-44
2023/11/07 10:59:58;;;;;;;28.80;15.80;;;;;;;11.41;100.00;100318.38;5090983;28;20091;-44
2023/11/07 11:02:28;;;;;;;25.83;16.55;;;;;;;11.49;100.00;100319.72;5091284;28;20040;-43
2023/11/07 11:04:59;;;;;;;25.25;16.67;;;;;;;11.63;100.00;100327.72;5091422;28;20420;-43
2023/11/07 11:07:28;;;;;;;27.80;16.38;;;;;;;11.77;100.00;100325.00;5090950;28;20508;-44
2023/11/07 11:09:59;;;;;;;23.98;15.95;;;;;;;11.77;100.00;100314.31;5090858;28;20419;-44
2023/11/07 11:12:29;;;;;;;26.58;16.75;;;;;;;11.77;100.00;100319.66;5093716;28;20097;-44
2023/11/07 11:14:58;;;;;;;30.60;17.33;;;;;;;11.84;100.00;100314.81;5094930;28;20093;-43
2023/11/07 11:17:36;;;;;;;26.08;17.67;;;;;;;11.81;100.00;100320.38;5095299;28;20412;-42